Time;durP1;ratioP1;P1;durP2;ratioP2;P2;SDS_P1;SDS_P2;PMS_P1;PMS_P2;Temp;Humidity;BMP_temperature;BMP_pressure;BME280_temperature;BME280_humidity;BME280_pressure;Samples;Min_cycle;Max_cycle;Signal;HPM_P1;HPM_P2
2021/12/02 00:02:13;;;;;;;34.08;5.88;;;;;;;;;;5090500;28;20028;-68
2021/12/02 00:04:40;;;;;;;25.80;5.90;;;;;;;;;;5090923;28;20028;-68
2021/12/02 00:07:06;;;;;;;20.77;5.63;;;;;;;;;;5091441;28;20054;-68
2021/12/02 00:09:35;;;;;;;24.40;4.65;;;;;;;;;;5092440;28;20028;-68
2021/12/02 00:12:02;;;;;;;20.83;4.53;;;;;;;;;;5084799;28;20031;-69
2021/12/02 00:14:29;;;;;;;28.73;5.30;;;;;;;;;;5092498;28;20465;-68
2021/12/02 00:22:12;;;;;;;33.63;5.30;;;;;;;;;;5091271;28;20457;-68
2021/12/02 00:24:39;;;;;;;27.35;4.72;;;;;;;;;;5084481;28;20078;-68
2021/12/02 00:27:06;;;;;;;21.52;5.78;;;;;;;;;;5091748;28;20063;-68
2021/12/02 00:29:32;;;;;;;19.13;3.70;;;;;;;;;;5090980;28;20032;-68
2021/12/02 00:32:00;;;;;;;29.67;5.40;;;;;;;;;;5090196;28;20016;-69
2021/12/02 00:34:27;;;;;;;26.13;4.22;;;;;;;;;;5090782;28;20823;-68
2021/12/02 00:36:53;;;;;;;26.08;4.55;;;;;;;;;;5090987;28;20104;-69
2021/12/02 00:39:20;;;;;;;24.98;3.60;;;;;;;;;;5072026;28;20028;-69
2021/12/02 00:41:46;;;;;;;23.20;4.70;;;;;;;;;;5087831;28;20037;-68
2021/12/02 00:44:12;;;;;;;43.05;5.30;;;;;;;;;;5089228;28;20021;-69
2021/12/02 00:46:38;;;;;;;24.05;4.70;;;;;;;;;;5091115;28;20034;-68
2021/12/02 00:49:06;;;;;;;20.98;4.53;;;;;;;;;;5090400;28;20142;-68
2021/12/02 00:51:33;;;;;;;32.67;5.28;;;;;;;;;;5091376;28;20048;-68
2021/12/02 00:54:06;;;;;;;28.33;4.68;;;;;;;;;;5091146;28;20024;-68
2021/12/02 00:56:32;;;;;;;;;;;;;;;;;;5087721;28;20224;-69
2021/12/02 00:58:58;;;;;;;22.05;3.97;;;;;;;;;;5089676;28;19998;-68
2021/12/02 01:01:25;;;;;;;29.88;4.70;;;;;;;;;;5090377;28;20066;-68
2021/12/02 01:03:53;;;;;;;25.92;4.10;;;;;;;;;;5090928;28;20023;-68
2021/12/02 01:06:19;;;;;;;22.67;5.53;;;;;;;;;;5090270;28;20024;-68
2021/12/02 01:08:46;;;;;;;20.63;4.70;;;;;;;;;;5090124;28;20402;-69
2021/12/02 01:11:13;;;;;;;33.97;4.20;;;;;;;;;;5091026;28;20164;-69
2021/12/02 01:13:40;;;;;;;29.48;4.38;;;;;;;;;;5088966;28;20030;-68
2021/12/02 01:16:07;;;;;;;25.80;4.72;;;;;;;;;;5093576;28;20034;-69
2021/12/02 01:18:33;;;;;;;24.63;6.22;;;;;;;;;;5093536;28;20456;-68
2021/12/02 01:20:59;;;;;;;20.38;3.25;;;;;;;;;;5092882;28;20016;-69
2021/12/02 01:23:27;;;;;;;24.73;3.28;;;;;;;;;;5094721;28;20034;-69
2021/12/02 01:25:54;;;;;;;28.05;3.53;;;;;;;;;;5098775;28;20075;-69
2021/12/02 01:28:22;;;;;;;30.50;4.35;;;;;;;;;;5094103;28;20048;-68
2021/12/02 01:30:48;;;;;;;20.83;3.85;;;;;;;;;;5091749;28;20051;-68
2021/12/02 01:33:15;;;;;;;39.83;6.00;;;;;;;;;;5096820;28;20509;-69
2021/12/02 01:35:41;;;;;;;32.97;5.43;;;;;;;;;;5094448;28;20452;-68
2021/12/02 01:38:07;;;;;;;30.02;3.47;;;;;;;;;;5095927;28;20044;-69
2021/12/02 01:40:33;;;;;;;25.48;3.00;;;;;;;;;;5101599;28;20027;-69
2021/12/02 01:42:59;;;;;;;21.20;3.15;;;;;;;;;;5091948;28;20103;-69
2021/12/02 01:45:26;;;;;;;29.15;3.60;;;;;;;;;;5096063;28;20060;-69
2021/12/02 01:47:54;;;;;;;22.50;3.22;;;;;;;;;;5096793;28;20020;-68
2021/12/02 01:50:22;;;;;;;24.30;4.85;;;;;;;;;;5090316;28;20051;-69
2021/12/02 01:52:54;;;;;;;26.65;3.40;;;;;;;;;;5090372;28;20039;-69
2021/12/02 01:55:20;;;;;;;25.33;3.80;;;;;;;;;;5085201;28;20027;-69
2021/12/02 01:58:05;;;;;;;26.83;6.50;;;;;;;;;;5092803;28;20023;-69
2021/12/02 02:00:41;;;;;;;23.48;3.95;;;;;;;;;;5087837;28;20459;-69
2021/12/02 02:03:08;;;;;;;27.08;3.60;;;;;;;;;;5089766;28;20016;-69
2021/12/02 02:05:34;;;;;;;21.75;3.00;;;;;;;;;;5103152;28;20035;-69
2021/12/02 02:08:01;;;;;;;27.05;4.05;;;;;;;;;;5097282;28;20077;-69
2021/12/02 02:10:28;;;;;;;23.42;2.83;;;;;;;;;;5084798;28;20400;-69
2021/12/02 02:12:58;;;;;;;29.08;3.70;;;;;;;;;;5093713;28;20396;-69
2021/12/02 02:15:25;;;;;;;23.30;3.83;;;;;;;;;;5102782;28;20040;-68
2021/12/02 02:17:58;;;;;;;24.80;4.70;;;;;;;;;;5084832;28;20031;-69
2021/12/02 02:20:25;;;;;;;33.47;3.67;;;;;;;;;;5090660;28;20043;-69
2021/12/02 02:22:51;;;;;;;15.00;2.70;;;;;;;;;;5092407;28;20535;-69
2021/12/02 02:25:18;;;;;;;35.65;5.45;;;;;;;;;;5089273;28;20051;-69
2021/12/02 02:27:45;;;;;;;23.40;3.83;;;;;;;;;;5090072;28;20028;-69
2021/12/02 02:30:11;;;;;;;25.08;2.97;;;;;;;;;;5090324;28;20027;-69
2021/12/02 02:32:37;;;;;;;24.00;3.60;;;;;;;;;;5092564;28;20103;-68
2021/12/02 02:35:04;;;;;;;23.35;4.22;;;;;;;;;;5090857;28;20131;-69
2021/12/02 02:37:33;;;;;;;25.27;4.43;;;;;;;;;;5095234;28;20054;-69
2021/12/02 02:40:01;;;;;;;21.65;3.25;;;;;;;;;;5090578;28;20023;-69
2021/12/02 02:42:27;;;;;;;32.65;3.95;;;;;;;;;;5092375;28;20407;-68
2021/12/02 02:44:53;;;;;;;36.67;3.97;;;;;;;;;;5092317;28;20077;-69
2021/12/02 02:47:24;;;;;;;23.35;4.00;;;;;;;;;;5090260;28;20028;-68
2021/12/02 02:49:50;;;;;;;15.77;2.38;;;;;;;;;;5086632;28;20119;-68
2021/12/02 02:52:16;;;;;;;23.42;2.72;;;;;;;;;;5094166;28;20020;-68
2021/12/02 02:54:42;;;;;;;30.98;3.95;;;;;;;;;;5091328;28;20789;-68
2021/12/02 02:57:11;;;;;;;23.95;3.63;;;;;;;;;;5093977;28;20020;-68
2021/12/02 02:59:44;;;;;;;28.13;3.92;;;;;;;;;;5085838;28;20028;-68
2021/12/02 03:02:25;;;;;;;20.15;4.00;;;;;;;;;;5086578;28;20016;-69
2021/12/02 03:07:53;;;;;;;19.67;3.33;;;;;;;;;;5092606;28;20060;-68
2021/12/02 03:18:29;;;;;;;26.52;5.50;;;;;;;;;;5100609;28;20026;-69
2021/12/02 03:20:56;;;;;;;26.55;4.07;;;;;;;;;;5094940;28;20058;-69
2021/12/02 03:23:23;;;;;;;29.40;3.30;;;;;;;;;;5101351;28;20589;-68
2021/12/02 03:25:49;;;;;;;25.98;3.67;;;;;;;;;;5101656;28;20396;-69
2021/12/02 03:28:15;;;;;;;25.80;3.28;;;;;;;;;;5103705;28;20028;-69
2021/12/02 03:30:41;;;;;;;15.63;2.28;;;;;;;;;;5097517;28;20095;-69
2021/12/02 03:33:07;;;;;;;15.55;2.45;;;;;;;;;;5097332;28;20031;-69
2021/12/02 03:35:33;;;;;;;17.60;2.20;;;;;;;;;;5094057;28;20060;-69
2021/12/02 03:37:59;;;;;;;17.52;3.00;;;;;;;;;;5099267;28;20030;-69
2021/12/02 03:40:25;;;;;;;14.60;1.90;;;;;;;;;;5099233;28;20027;-69
2021/12/02 03:42:52;;;;;;;14.57;2.38;;;;;;;;;;5096766;28;20119;-69
2021/12/02 03:45:18;;;;;;;23.60;2.13;;;;;;;;;;5097262;28;20031;-69
2021/12/02 03:47:45;;;;;;;16.83;3.13;;;;;;;;;;5093756;28;20036;-69
2021/12/02 03:50:11;;;;;;;15.98;1.92;;;;;;;;;;5094357;28;20028;-69
2021/12/02 03:52:37;;;;;;;14.52;2.97;;;;;;;;;;5099321;28;20089;-69
2021/12/02 03:55:03;;;;;;;12.10;1.60;;;;;;;;;;5095295;28;20024;-69
2021/12/02 03:57:31;;;;;;;22.83;1.70;;;;;;;;;;5102058;28;20387;-70
2021/12/02 03:59:58;;;;;;;20.38;1.88;;;;;;;;;;5102008;28;20453;-69
2021/12/02 04:02:24;;;;;;;8.48;1.52;;;;;;;;;;5094074;28;20028;-69
2021/12/02 04:04:50;;;;;;;14.32;1.98;;;;;;;;;;5105753;28;20039;-70
2021/12/02 04:07:18;;;;;;;14.27;1.70;;;;;;;;;;5100001;28;20035;-69
2021/12/02 04:09:46;;;;;;;21.60;1.83;;;;;;;;;;5101209;28;20028;-69
2021/12/02 04:12:23;;;;;;;14.45;2.08;;;;;;;;;;5106343;28;20038;-69
2021/12/02 04:15:02;;;;;;;11.57;1.50;;;;;;;;;;5107612;28;20403;-69
2021/12/02 04:17:43;;;;;;;11.05;2.00;;;;;;;;;;5094681;28;20030;-69
2021/12/02 04:20:16;;;;;;;11.25;1.40;;;;;;;;;;5100380;28;20012;-69
2021/12/02 04:22:42;;;;;;;13.25;1.55;;;;;;;;;;5103625;27;20073;-70
2021/12/02 04:25:09;;;;;;;18.20;1.77;;;;;;;;;;5094391;28;20031;-69
2021/12/02 04:27:35;;;;;;;10.30;1.58;;;;;;;;;;5092321;28;20032;-69
2021/12/02 04:30:01;;;;;;;9.75;1.95;;;;;;;;;;5095003;28;20028;-69
2021/12/02 04:32:27;;;;;;;9.15;1.70;;;;;;;;;;5091516;28;20034;-69
2021/12/02 04:34:53;;;;;;;12.50;1.77;;;;;;;;;;5090930;28;20499;-69
2021/12/02 04:37:19;;;;;;;11.55;1.67;;;;;;;;;;5093080;28;20388;-69
2021/12/02 04:39:46;;;;;;;19.38;1.92;;;;;;;;;;5093904;28;20028;-69
2021/12/02 04:42:12;;;;;;;11.35;1.30;;;;;;;;;;5095057;28;20013;-69
2021/12/02 04:44:38;;;;;;;10.95;1.38;;;;;;;;;;5097476;28;20032;-69
2021/12/02 04:47:04;;;;;;;13.60;1.80;;;;;;;;;;5092710;28;20545;-69
2021/12/02 04:49:30;;;;;;;14.50;1.63;;;;;;;;;;5093067;27;20106;-69
2021/12/02 04:51:56;;;;;;;15.30;2.38;;;;;;;;;;5092438;28;20032;-69
2021/12/02 04:54:22;;;;;;;11.27;1.75;;;;;;;;;;5092067;28;20034;-69
2021/12/02 04:56:48;;;;;;;14.88;1.63;;;;;;;;;;5093706;28;20034;-69
2021/12/02 04:59:14;;;;;;;18.50;2.05;;;;;;;;;;5095682;28;20024;-69
2021/12/02 05:01:40;;;;;;;17.42;1.88;;;;;;;;;;5093650;28;20103;-69
2021/12/02 05:04:06;;;;;;;15.00;1.75;;;;;;;;;;5093762;28;20031;-69
2021/12/02 05:06:32;;;;;;;18.65;2.65;;;;;;;;;;5095980;28;20387;-69
2021/12/02 05:08:58;;;;;;;13.02;2.58;;;;;;;;;;5090152;28;20035;-69
2021/12/02 05:11:25;;;;;;;21.48;4.75;;;;;;;;;;5096640;28;20143;-69
2021/12/02 05:13:51;;;;;;;21.40;3.10;;;;;;;;;;5095723;28;20073;-69
2021/12/02 05:16:17;;;;;;;24.92;2.83;;;;;;;;;;5094593;28;20032;-69
2021/12/02 05:18:43;;;;;;;14.43;2.50;;;;;;;;;;5097035;28;20016;-69
2021/12/02 05:21:09;;;;;;;17.00;3.28;;;;;;;;;;5094372;28;20024;-69
2021/12/02 05:23:35;;;;;;;17.05;2.95;;;;;;;;;;5096134;28;20031;-69
2021/12/02 05:26:01;;;;;;;12.35;2.85;;;;;;;;;;5096366;28;20473;-69
2021/12/02 05:28:27;;;;;;;20.52;2.20;;;;;;;;;;5097550;28;20031;-69
2021/12/02 05:30:53;;;;;;;8.35;2.20;;;;;;;;;;5096820;28;20198;-69
2021/12/02 05:33:19;;;;;;;12.50;1.70;;;;;;;;;;5093369;28;20031;-69
2021/12/02 05:35:46;;;;;;;15.88;1.77;;;;;;;;;;5094179;28;20031;-69
2021/12/02 05:38:12;;;;;;;9.15;1.38;;;;;;;;;;5095107;28;20074;-69
2021/12/02 05:40:38;;;;;;;11.68;1.88;;;;;;;;;;5089591;28;20047;-69
2021/12/02 05:43:04;;;;;;;11.55;1.85;;;;;;;;;;5091528;28;20024;-69
2021/12/02 05:45:30;;;;;;;16.63;1.98;;;;;;;;;;5097329;28;20424;-70
2021/12/02 05:47:56;;;;;;;17.38;1.75;;;;;;;;;;5097660;28;20388;-69
2021/12/02 05:50:22;;;;;;;14.50;1.35;;;;;;;;;;5093972;28;20408;-69
2021/12/02 05:52:48;;;;;;;17.33;2.25;;;;;;;;;;5101969;28;20032;-69
2021/12/02 05:55:14;;;;;;;9.25;1.45;;;;;;;;;;5092413;28;20081;-69
2021/12/02 05:57:40;;;;;;;14.23;1.45;;;;;;;;;;5098935;28;20176;-69
2021/12/02 06:00:07;;;;;;;16.38;2.03;;;;;;;;;;5089728;28;20031;-69
2021/12/02 06:02:36;;;;;;;10.18;2.05;;;;;;;;;;5099474;28;20100;-69
2021/12/02 06:05:02;;;;;;;14.48;2.45;;;;;;;;;;5088246;28;20055;-69
2021/12/02 06:07:28;;;;;;;16.73;1.85;;;;;;;;;;5102634;28;20038;-69
2021/12/02 06:09:54;;;;;;;14.13;2.10;;;;;;;;;;5101379;28;20102;-69
2021/12/02 06:12:20;;;;;;;14.95;1.67;;;;;;;;;;5101208;28;20055;-69
2021/12/02 06:14:46;;;;;;;14.50;1.25;;;;;;;;;;5096994;28;20604;-69
2021/12/02 06:17:12;;;;;;;11.23;1.05;;;;;;;;;;5094553;28;20024;-69
2021/12/02 06:19:38;;;;;;;14.45;1.73;;;;;;;;;;5099083;28;20084;-69
2021/12/02 06:22:05;;;;;;;17.73;1.42;;;;;;;;;;5096999;28;20580;-68
2021/12/02 06:24:42;;;;;;;7.28;1.35;;;;;;;;;;5097738;28;20020;-68
2021/12/02 06:27:08;;;;;;;18.58;1.77;;;;;;;;;;5097409;28;20118;-69
2021/12/02 06:29:34;;;;;;;11.07;1.52;;;;;;;;;;5096072;28;20024;-69
2021/12/02 06:32:00;;;;;;;10.57;1.80;;;;;;;;;;5101792;28;20019;-69
2021/12/02 06:34:26;;;;;;;25.60;1.85;;;;;;;;;;5094133;28;20026;-69
2021/12/02 06:36:52;;;;;;;16.35;2.47;;;;;;;;;;5096072;28;20028;-69
2021/12/02 06:39:18;;;;;;;10.25;1.45;;;;;;;;;;5094416;28;20095;-69
2021/12/02 06:41:44;;;;;;;10.52;1.90;;;;;;;;;;5096549;28;20539;-69
2021/12/02 06:44:10;;;;;;;10.07;1.65;;;;;;;;;;5098327;28;20439;-69
2021/12/02 06:46:37;;;;;;;15.60;1.33;;;;;;;;;;5104117;28;20365;-69
2021/12/02 06:49:03;;;;;;;7.18;1.45;;;;;;;;;;5092819;28;20461;-69
2021/12/02 06:51:29;;;;;;;11.15;1.50;;;;;;;;;;5092311;28;20047;-69
2021/12/02 06:53:55;;;;;;;12.20;1.95;;;;;;;;;;5103153;28;20099;-69
2021/12/02 06:56:21;;;;;;;7.20;1.30;;;;;;;;;;5098332;28;20121;-68
2021/12/02 06:58:47;;;;;;;8.32;1.25;;;;;;;;;;5100127;28;20099;-69
2021/12/02 07:01:13;;;;;;;13.25;1.70;;;;;;;;;;5097127;28;20519;-68
2021/12/02 07:03:39;;;;;;;8.00;1.98;;;;;;;;;;5093380;28;20023;-69
2021/12/02 07:06:05;;;;;;;12.40;1.67;;;;;;;;;;5099468;28;20057;-69
2021/12/02 07:08:32;;;;;;;12.27;1.85;;;;;;;;;;5098866;28;20498;-69
2021/12/02 07:10:59;;;;;;;8.50;1.45;;;;;;;;;;5104855;28;20035;-69
2021/12/02 07:13:25;;;;;;;9.40;1.13;;;;;;;;;;5094174;28;20153;-68
2021/12/02 07:15:53;;;;;;;13.35;1.58;;;;;;;;;;5091496;28;20032;-69
2021/12/02 07:18:19;;;;;;;5.80;1.15;;;;;;;;;;5098191;28;20032;-69
2021/12/02 07:20:47;;;;;;;21.55;2.20;;;;;;;;;;5096330;28;20497;-69
2021/12/02 07:23:13;;;;;;;14.13;1.35;;;;;;;;;;5096326;28;20027;-69
2021/12/02 07:25:40;;;;;;;12.38;1.27;;;;;;;;;;5092757;28;20035;-69
2021/12/02 07:28:06;;;;;;;8.75;1.52;;;;;;;;;;5093946;28;20081;-69
2021/12/02 07:30:33;;;;;;;13.70;1.70;;;;;;;;;;5085515;28;20028;-69
2021/12/02 07:33:00;;;;;;;11.52;1.40;;;;;;;;;;5093184;28;20099;-68
2021/12/02 07:35:26;;;;;;;13.13;1.98;;;;;;;;;;5096938;28;20488;-69
2021/12/02 07:37:53;;;;;;;8.35;0.98;;;;;;;;;;5094588;28;20039;-69
2021/12/02 07:40:19;;;;;;;17.00;2.30;;;;;;;;;;5094441;28;20035;-68
2021/12/02 07:42:46;;;;;;;9.65;1.17;;;;;;;;;;5094061;28;20016;-69
2021/12/02 07:45:12;;;;;;;8.65;1.02;;;;;;;;;;5090422;28;20397;-69
2021/12/02 07:47:39;;;;;;;15.27;1.45;;;;;;;;;;5091144;28;20208;-68
2021/12/02 07:50:05;;;;;;;14.88;1.52;;;;;;;;;;5099323;28;20119;-69
2021/12/02 07:52:32;;;;;;;4.85;1.10;;;;;;;;;;5093387;28;20036;-69
2021/12/02 07:54:58;;;;;;;11.82;1.05;;;;;;;;;;5093352;28;20036;-68
2021/12/02 07:57:24;;;;;;;10.18;1.88;;;;;;;;;;5093741;28;20055;-69
2021/12/02 07:59:50;;;;;;;6.22;0.98;;;;;;;;;;5097337;28;20034;-69
2021/12/02 08:02:16;;;;;;;8.55;1.02;;;;;;;;;;5095104;28;20016;-69
2021/12/02 08:04:43;;;;;;;17.30;1.52;;;;;;;;;;5097169;28;20050;-69
2021/12/02 08:07:09;;;;;;;11.10;1.42;;;;;;;;;;5100282;28;20047;-68
2021/12/02 08:09:35;;;;;;;16.92;1.77;;;;;;;;;;5094869;28;20052;-69
2021/12/02 08:12:01;;;;;;;7.93;1.42;;;;;;;;;;5096170;28;20020;-69
2021/12/02 08:14:27;;;;;;;12.23;1.80;;;;;;;;;;5094404;28;20020;-69
2021/12/02 08:16:53;;;;;;;13.60;1.48;;;;;;;;;;5095469;28;20472;-69
2021/12/02 08:19:20;;;;;;;9.85;1.73;;;;;;;;;;5094966;28;20039;-68
2021/12/02 08:21:46;;;;;;;19.38;2.63;;;;;;;;;;5092913;28;20397;-69
2021/12/02 08:24:12;;;;;;;13.60;1.98;;;;;;;;;;5093802;28;20027;-69
2021/12/02 08:26:38;;;;;;;23.55;2.35;;;;;;;;;;5095553;28;20059;-69
2021/12/02 08:29:05;;;;;;;9.02;1.48;;;;;;;;;;5093069;28;20020;-69
2021/12/02 08:31:31;;;;;;;10.35;1.92;;;;;;;;;;5094065;28;20027;-68
2021/12/02 08:33:57;;;;;;;17.05;1.60;;;;;;;;;;5096134;28;20028;-69
2021/12/02 08:36:27;;;;;;;20.63;1.52;;;;;;;;;;5096389;28;20024;-68
2021/12/02 08:38:53;;;;;;;11.45;1.30;;;;;;;;;;5091872;28;20024;-69
2021/12/02 08:41:20;;;;;;;8.35;1.75;;;;;;;;;;5097027;28;20020;-69
2021/12/02 08:43:47;;;;;;;11.13;1.55;;;;;;;;;;5095275;28;20520;-69
2021/12/02 08:46:13;;;;;;;12.90;1.45;;;;;;;;;;5094289;28;20032;-69
2021/12/02 08:48:39;;;;;;;8.02;1.58;;;;;;;;;;5092319;28;20027;-69
2021/12/02 08:51:05;;;;;;;14.35;1.20;;;;;;;;;;5094609;28;20031;-69
2021/12/02 08:53:31;;;;;;;13.07;1.30;;;;;;;;;;5094310;28;20020;-69
2021/12/02 08:55:57;;;;;;;10.27;1.48;;;;;;;;;;5093723;28;20035;-69
2021/12/02 08:58:24;;;;;;;7.75;1.30;;;;;;;;;;5097730;28;20107;-69
2021/12/02 09:00:50;;;;;;;16.30;1.50;;;;;;;;;;5094799;28;20020;-69
2021/12/02 09:03:16;;;;;;;8.82;1.20;;;;;;;;;;5099738;28;20085;-69
2021/12/02 09:05:43;;;;;;;8.32;1.35;;;;;;;;;;5099786;28;20024;-69
2021/12/02 09:08:09;;;;;;;17.90;3.20;;;;;;;;;;5097509;28;20496;-69
2021/12/02 09:10:35;;;;;;;11.27;1.77;;;;;;;;;;5098771;28;20424;-68
2021/12/02 09:13:08;;;;;;;12.20;1.58;;;;;;;;;;5092449;28;20027;-69
2021/12/02 09:15:35;;;;;;;11.82;1.70;;;;;;;;;;5088573;28;20032;-68
2021/12/02 09:18:01;;;;;;;11.48;1.30;;;;;;;;;;5087043;28;20020;-69
2021/12/02 09:20:27;;;;;;;18.00;2.38;;;;;;;;;;5094948;28;20031;-69
2021/12/02 09:22:53;;;;;;;10.02;1.67;;;;;;;;;;5099782;28;20480;-69
2021/12/02 09:25:19;;;;;;;15.60;2.03;;;;;;;;;;5093932;28;20384;-68
2021/12/02 09:27:45;;;;;;;12.63;1.70;;;;;;;;;;5096299;28;20035;-69
2021/12/02 09:30:12;;;;;;;10.30;1.52;;;;;;;;;;5091333;28;20020;-69
2021/12/02 09:32:38;;;;;;;9.35;1.85;;;;;;;;;;5095129;28;20103;-69
2021/12/02 09:35:04;;;;;;;12.50;1.38;;;;;;;;;;5088941;28;20040;-69
2021/12/02 09:37:30;;;;;;;11.82;1.67;;;;;;;;;;5088000;28;20109;-69
2021/12/02 09:39:57;;;;;;;10.55;1.45;;;;;;;;;;5089381;28;20028;-69
2021/12/02 09:42:23;;;;;;;14.77;1.65;;;;;;;;;;5089250;28;20024;-69
2021/12/02 09:44:54;;;;;;;7.45;2.08;;;;;;;;;;5088237;28;20089;-69
2021/12/02 09:47:21;;;;;;;13.68;1.95;;;;;;;;;;5090477;28;20122;-69
2021/12/02 09:49:47;;;;;;;10.18;2.10;;;;;;;;;;5089796;28;20024;-68
2021/12/02 09:52:15;;;;;;;11.55;1.92;;;;;;;;;;5088883;28;20024;-68
2021/12/02 09:57:33;;;;;;;17.73;2.08;;;;;;;;;;5062687;28;20027;-68
2021/12/02 09:59:59;;;;;;;20.55;1.92;;;;;;;;;;5089982;28;20023;-68
2021/12/02 10:02:25;;;;;;;11.75;2.25;;;;;;;;;;5090126;28;20034;-68
2021/12/02 10:07:29;;;;;;;7.95;1.98;;;;;;;;;;5089998;28;20029;-68
2021/12/02 10:10:10;;;;;;;15.30;3.28;;;;;;;;;;5090190;28;20553;-68
2021/12/02 10:12:41;;;;;;;19.20;4.05;;;;;;;;;;5089878;28;20107;-68
2021/12/02 10:15:12;;;;;;;16.55;4.47;;;;;;;;;;5089599;28;20032;-68
2021/12/02 10:17:43;;;;;;;20.30;2.67;;;;;;;;;;5089629;28;20468;-68
2021/12/02 10:20:28;;;;;;;8.55;2.85;;;;;;;;;;5088564;28;20076;-68
2021/12/02 10:23:16;;;;;;;19.38;3.97;;;;;;;;;;5090092;28;20020;-68
2021/12/02 10:25:49;;;;;;;15.52;2.40;;;;;;;;;;5082782;28;20557;-68
2021/12/02 10:28:16;;;;;;;11.15;3.03;;;;;;;;;;5089653;28;20081;-68
2021/12/02 10:30:43;;;;;;;20.02;3.38;;;;;;;;;;5089548;28;20055;-68
2021/12/02 10:33:10;;;;;;;10.38;2.78;;;;;;;;;;5089524;28;20047;-68
2021/12/02 10:35:40;;;;;;;11.00;2.70;;;;;;;;;;5089450;28;20051;-68
2021/12/02 10:38:06;;;;;;;16.25;1.90;;;;;;;;;;5088722;28;20028;-68
2021/12/02 10:40:33;;;;;;;19.33;2.33;;;;;;;;;;5089252;28;20020;-68
2021/12/02 10:43:05;;;;;;;14.80;2.95;;;;;;;;;;5089683;28;20024;-68
2021/12/02 10:45:31;;;;;;;18.80;2.92;;;;;;;;;;5088740;28;20098;-68
2021/12/02 10:47:57;;;;;;;18.45;2.80;;;;;;;;;;5089975;28;20476;-68
2021/12/02 10:50:24;;;;;;;9.60;2.50;;;;;;;;;;5089468;28;20255;-68
2021/12/02 10:52:51;;;;;;;26.23;3.80;;;;;;;;;;5089199;28;20028;-68
2021/12/02 10:55:25;;;;;;;15.13;2.58;;;;;;;;;;5088454;28;20028;-68
2021/12/02 10:57:55;;;;;;;10.15;1.95;;;;;;;;;;5089381;28;20107;-68
2021/12/02 11:00:28;;;;;;;22.02;2.45;;;;;;;;;;5089075;28;20098;-68
2021/12/02 11:02:55;;;;;;;17.63;2.30;;;;;;;;;;5089121;28;20077;-68
2021/12/02 11:05:24;;;;;;;25.73;3.13;;;;;;;;;;5089264;28;20035;-68
2021/12/02 11:07:53;;;;;;;18.52;3.85;;;;;;;;;;5089086;28;20097;-68
2021/12/02 11:10:19;;;;;;;16.58;2.55;;;;;;;;;;5089189;28;20389;-68
2021/12/02 11:12:46;;;;;;;19.60;2.80;;;;;;;;;;5089151;28;20480;-68
2021/12/02 11:15:19;;;;;;;16.10;2.13;;;;;;;;;;5089122;28;20043;-68
2021/12/02 11:17:57;;;;;;;9.60;2.13;;;;;;;;;;5080855;28;20110;-68
2021/12/02 11:20:24;;;;;;;20.15;3.38;;;;;;;;;;5089048;28;20024;-68
2021/12/02 11:22:53;;;;;;;16.08;2.35;;;;;;;;;;5089021;28;20101;-68
2021/12/02 11:25:19;;;;;;;16.85;2.40;;;;;;;;;;5089139;28;20034;-69
2021/12/02 11:27:49;;;;;;;12.75;3.30;;;;;;;;;;5089040;28;20072;-68
2021/12/02 11:30:19;;;;;;;12.02;2.50;;;;;;;;;;5088569;28;20039;-68
2021/12/02 11:32:52;;;;;;;17.65;2.30;;;;;;;;;;5083255;28;20122;-68
2021/12/02 11:35:20;;;;;;;26.17;2.75;;;;;;;;;;5087022;28;20316;-68
2021/12/02 11:37:53;;;;;;;14.93;2.13;;;;;;;;;;5088706;28;20071;-68
2021/12/02 11:40:24;;;;;;;17.08;2.13;;;;;;;;;;5087914;28;20060;-68
2021/12/02 11:42:50;;;;;;;14.82;2.15;;;;;;;;;;5089457;28;20026;-68
2021/12/02 11:45:17;;;;;;;17.23;2.35;;;;;;;;;;5092229;28;20035;-68
2021/12/02 11:47:43;;;;;;;14.07;2.20;;;;;;;;;;5092095;28;20468;-68
2021/12/02 11:50:10;;;;;;;21.42;2.63;;;;;;;;;;5092199;28;20050;-68
2021/12/02 11:52:37;;;;;;;24.35;2.70;;;;;;;;;;5091078;28;20085;-68
2021/12/02 11:55:04;;;;;;;20.80;2.75;;;;;;;;;;5092510;28;20729;-68
2021/12/02 11:57:33;;;;;;;16.30;2.97;;;;;;;;;;5091797;28;20028;-68
2021/12/02 11:59:59;;;;;;;17.52;2.85;;;;;;;;;;5091352;28;20350;-68
2021/12/02 12:02:25;;;;;;;19.92;2.40;;;;;;;;;;5092754;28;20553;-68
2021/12/02 12:04:55;;;;;;;15.82;2.90;;;;;;;;;;5091854;28;20384;-68
2021/12/02 12:07:22;;;;;;;21.85;2.67;;;;;;;;;;5072159;28;20033;-68
2021/12/02 12:09:48;;;;;;;18.85;2.28;;;;;;;;;;5091585;28;20024;-68
2021/12/02 12:12:15;;;;;;;12.75;2.28;;;;;;;;;;5089881;28;20499;-68
2021/12/02 12:14:42;;;;;;;14.07;1.95;;;;;;;;;;5091653;28;20028;-68
2021/12/02 12:17:15;;;;;;;16.67;3.30;;;;;;;;;;5091592;28;20456;-68
2021/12/02 12:19:41;;;;;;;24.15;2.53;;;;;;;;;;5091549;28;20373;-68
2021/12/02 12:22:08;;;;;;;19.50;2.60;;;;;;;;;;5091878;28;20054;-69
2021/12/02 12:24:44;;;;;;;25.58;2.70;;;;;;;;;;5091961;28;20472;-68
2021/12/02 12:27:20;;;;;;;23.15;3.85;;;;;;;;;;5091590;28;20480;-68
2021/12/02 12:29:47;;;;;;;21.63;4.03;;;;;;;;;;5084147;28;20021;-68
2021/12/02 12:32:31;;;;;;;25.98;4.40;;;;;;;;;;5090506;28;20473;-68
2021/12/02 12:35:10;;;;;;;25.27;3.58;;;;;;;;;;5091544;28;20056;-68
2021/12/02 12:40:11;;;;;;;15.85;3.10;;;;;;;;;;5094235;28;20498;-68
2021/12/02 12:42:38;;;;;;;27.50;4.93;;;;;;;;;;5092863;28;20020;-68
2021/12/02 12:45:04;;;;;;;26.50;3.78;;;;;;;;;;5090956;28;20056;-68
2021/12/02 12:47:42;;;;;;;21.08;4.80;;;;;;;;;;5091184;28;20024;-68
2021/12/02 12:50:29;;;;;;;17.20;3.33;;;;;;;;;;5083557;28;20020;-68
2021/12/02 12:52:55;;;;;;;11.50;3.58;;;;;;;;;;5089870;28;20424;-68
2021/12/02 12:55:22;;;;;;;19.42;4.13;;;;;;;;;;5085344;28;20032;-68
2021/12/02 12:58:07;;;;;;;20.98;3.60;;;;;;;;;;5097646;28;20025;-68
2021/12/02 13:00:39;;;;;;;25.30;3.22;;;;;;;;;;5090034;28;20032;-68
2021/12/02 13:03:11;;;;;;;22.80;3.63;;;;;;;;;;5089804;28;20031;-68
2021/12/02 13:05:41;;;;;;;19.95;3.90;;;;;;;;;;5090052;28;20264;-67
2021/12/02 13:08:24;;;;;;;32.50;3.67;;;;;;;;;;5087970;28;20036;-65
2021/12/02 13:11:00;;;;;;;18.20;3.00;;;;;;;;;;5089793;28;20024;-68
2021/12/02 13:13:30;;;;;;;27.77;3.17;;;;;;;;;;5089885;28;20035;-69
2021/12/02 13:16:09;;;;;;;14.13;4.45;;;;;;;;;;5090126;28;20392;-69
2021/12/02 13:18:36;;;;;;;19.42;2.83;;;;;;;;;;5087073;28;20039;-68
2021/12/02 13:21:22;;;;;;;21.13;3.30;;;;;;;;;;5092337;28;20130;-69
2021/12/02 13:24:02;;;;;;;12.77;3.17;;;;;;;;;;5091789;28;20425;-68
2021/12/02 13:26:28;;;;;;;15.70;3.45;;;;;;;;;;5090638;28;20071;-68
2021/12/02 13:28:56;;;;;;;18.08;2.50;;;;;;;;;;5090566;28;20308;-68
2021/12/02 13:31:24;;;;;;;15.50;3.25;;;;;;;;;;5100617;28;20048;-68
2021/12/02 13:33:55;;;;;;;14.93;2.60;;;;;;;;;;5090455;28;20066;-68
2021/12/02 13:36:34;;;;;;;16.08;2.65;;;;;;;;;;5090006;28;20039;-68
2021/12/02 13:39:11;;;;;;;14.52;2.42;;;;;;;;;;5083428;28;20036;-68
2021/12/02 13:41:46;;;;;;;17.55;3.53;;;;;;;;;;5090008;28;20016;-68
2021/12/02 13:44:17;;;;;;;21.55;3.88;;;;;;;;;;5090613;28;20016;-68
2021/12/02 13:46:47;;;;;;;13.75;4.43;;;;;;;;;;5089970;28;20063;-68
2021/12/02 13:49:16;;;;;;;19.42;3.50;;;;;;;;;;5090391;28;20099;-68
2021/12/02 13:54:31;;;;;;;18.95;4.20;;;;;;;;;;5089253;28;20035;-69
2021/12/02 13:56:58;;;;;;;25.77;3.00;;;;;;;;;;5084631;28;20031;-69
2021/12/02 13:59:27;;;;;;;14.88;2.13;;;;;;;;;;5088103;28;20303;-69
2021/12/02 14:01:57;;;;;;;18.45;2.15;;;;;;;;;;5089766;28;20031;-68
2021/12/02 14:04:23;;;;;;;16.98;2.28;;;;;;;;;;5092566;28;20115;-69
2021/12/02 14:06:50;;;;;;;11.82;2.83;;;;;;;;;;5089447;28;20032;-69
2021/12/02 14:09:18;;;;;;;16.15;2.83;;;;;;;;;;5089810;28;20481;-68
2021/12/02 14:11:45;;;;;;;24.08;3.70;;;;;;;;;;5084485;28;20036;-69
2021/12/02 14:14:18;;;;;;;36.08;3.15;;;;;;;;;;5089751;28;20035;-69
2021/12/02 14:16:44;;;;;;;17.13;2.05;;;;;;;;;;5089336;28;20077;-68
2021/12/02 14:19:15;;;;;;;13.00;1.85;;;;;;;;;;5089034;28;20056;-68
2021/12/02 14:21:41;;;;;;;15.27;2.13;;;;;;;;;;5088929;28;20473;-68
2021/12/02 14:24:07;;;;;;;19.67;2.45;;;;;;;;;;5089354;28;20477;-69
2021/12/02 14:26:33;;;;;;;16.88;2.45;;;;;;;;;;5089317;28;20071;-68
2021/12/02 14:28:59;;;;;;;15.98;2.17;;;;;;;;;;5087018;28;20330;-69
2021/12/02 14:31:35;;;;;;;23.88;4.35;;;;;;;;;;5088095;28;20032;-68
2021/12/02 14:34:04;;;;;;;22.60;3.65;;;;;;;;;;5088727;28;20484;-69
2021/12/02 14:36:30;;;;;;;17.20;2.17;;;;;;;;;;5086781;28;20020;-69
2021/12/02 14:39:06;;;;;;;20.30;2.80;;;;;;;;;;5088396;28;20107;-69
2021/12/02 14:41:44;;;;;;;16.38;2.60;;;;;;;;;;5086680;28;20023;-68
2021/12/02 14:44:14;;;;;;;22.15;4.45;;;;;;;;;;5086120;28;20070;-68
2021/12/02 14:46:41;;;;;;;22.17;4.03;;;;;;;;;;5087192;28;20115;-69
2021/12/02 14:49:08;;;;;;;38.97;9.32;;;;;;;;;;5088815;28;20362;-69
2021/12/02 14:51:43;;;;;;;33.30;6.68;;;;;;;;;;5089198;28;20024;-68
2021/12/02 14:54:10;;;;;;;16.60;3.28;;;;;;;;;;5086651;28;20020;-69
2021/12/02 14:56:36;;;;;;;23.27;4.90;;;;;;;;;;5088981;28;20111;-69
2021/12/02 14:59:15;;;;;;;33.03;6.05;;;;;;;;;;5087641;28;20031;-67
2021/12/02 15:14:38;;;;;;;19.65;4.03;;;;;;;;;;5046315;28;20728;-67
2021/12/02 15:17:05;;;;;;;25.83;3.17;;;;;;;;;;5044066;28;20104;-67